sensor_id;sensor_type;location;lat;lon;timestamp;P1;durP1;ratioP1;P2;durP2;ratioP2
47089;SDS011;32840;52.516;13.294;2024-02-15T00:02:21;7.85;;;5.35;;
47089;SDS011;32840;52.516;13.294;2024-02-15T00:05:07;7.85;;;5.70;;
47089;SDS011;32840;52.516;13.294;2024-02-15T00:08:03;9.70;;;6.20;;
47089;SDS011;32840;52.516;13.294;2024-02-15T00:10:51;7.88;;;5.43;;
47089;SDS011;32840;52.516;13.294;2024-02-15T00:13:39;10.85;;;5.68;;
47089;SDS011;32840;52.516;13.294;2024-02-15T00:16:24;7.18;;;5.43;;
47089;SDS011;32840;52.516;13.294;2024-02-15T00:19:10;8.45;;;6.30;;
47089;SDS011;32840;52.516;13.294;2024-02-15T00:21:55;8.35;;;5.80;;
47089;SDS011;32840;52.516;13.294;2024-02-15T00:24:40;10.43;;;5.97;;
47089;SDS011;32840;52.516;13.294;2024-02-15T00:27:26;8.70;;;5.80;;
47089;SDS011;32840;52.516;13.294;2024-02-15T00:30:21;9.07;;;6.55;;
47089;SDS011;32840;52.516;13.294;2024-02-15T00:33:06;7.72;;;5.95;;
47089;SDS011;32840;52.516;13.294;2024-02-15T00:35:56;7.45;;;5.53;;
47089;SDS011;32840;52.516;13.294;2024-02-15T00:38:42;8.25;;;6.03;;
47089;SDS011;32840;52.516;13.294;2024-02-15T00:41:27;8.75;;;5.72;;
47089;SDS011;32840;52.516;13.294;2024-02-15T00:44:12;7.25;;;5.70;;
47089;SDS011;32840;52.516;13.294;2024-02-15T00:47:00;10.45;;;5.97;;
47089;SDS011;32840;52.516;13.294;2024-02-15T00:49:45;9.07;;;6.45;;
47089;SDS011;32840;52.516;13.294;2024-02-15T00:52:32;9.82;;;6.53;;
47089;SDS011;32840;52.516;13.294;2024-02-15T00:55:19;8.55;;;6.88;;
47089;SDS011;32840;52.516;13.294;2024-02-15T00:58:10;8.60;;;6.75;;
47089;SDS011;32840;52.516;13.294;2024-02-15T01:00:59;10.23;;;6.72;;
47089;SDS011;32840;52.516;13.294;2024-02-15T01:03:48;12.85;;;7.53;;
47089;SDS011;32840;52.516;13.294;2024-02-15T01:06:37;9.93;;;6.82;;
47089;SDS011;32840;52.516;13.294;2024-02-15T01:09:25;10.45;;;7.18;;
47089;SDS011;32840;52.516;13.294;2024-02-15T01:12:10;11.38;;;7.75;;
47089;SDS011;32840;52.516;13.294;2024-02-15T01:14:55;8.40;;;6.97;;
47089;SDS011;32840;52.516;13.294;2024-02-15T01:17:43;9.30;;;7.45;;
47089;SDS011;32840;52.516;13.294;2024-02-15T01:20:28;11.82;;;7.88;;
47089;SDS011;32840;52.516;13.294;2024-02-15T01:23:14;10.13;;;7.60;;
47089;SDS011;32840;52.516;13.294;2024-02-15T01:25:59;11.93;;;7.40;;
47089;SDS011;32840;52.516;13.294;2024-02-15T01:28:46;9.50;;;7.03;;
47089;SDS011;32840;52.516;13.294;2024-02-15T01:31:32;9.85;;;7.60;;
47089;SDS011;32840;52.516;13.294;2024-02-15T01:34:19;8.80;;;7.07;;
47089;SDS011;32840;52.516;13.294;2024-02-15T01:37:12;9.77;;;7.60;;
47089;SDS011;32840;52.516;13.294;2024-02-15T01:43:37;8.27;;;6.50;;
47089;SDS011;32840;52.516;13.294;2024-02-15T01:46:27;9.80;;;7.05;;
47089;SDS011;32840;52.516;13.294;2024-02-15T01:49:17;10.82;;;7.38;;
47089;SDS011;32840;52.516;13.294;2024-02-15T01:52:12;10.40;;;7.78;;
47089;SDS011;32840;52.516;13.294;2024-02-15T01:54:58;10.77;;;8.32;;
47089;SDS011;32840;52.516;13.294;2024-02-15T01:57:50;11.95;;;7.95;;
47089;SDS011;32840;52.516;13.294;2024-02-15T02:00:35;10.13;;;7.78;;
47089;SDS011;32840;52.516;13.294;2024-02-15T02:03:25;11.25;;;8.20;;
47089;SDS011;32840;52.516;13.294;2024-02-15T02:06:10;10.45;;;8.55;;
47089;SDS011;32840;52.516;13.294;2024-02-15T02:08:55;12.80;;;9.57;;
47089;SDS011;32840;52.516;13.294;2024-02-15T02:11:46;11.98;;;9.48;;
47089;SDS011;32840;52.516;13.294;2024-02-15T02:14:38;11.50;;;8.98;;
47089;SDS011;32840;52.516;13.294;2024-02-15T02:17:25;12.55;;;9.93;;
47089;SDS011;32840;52.516;13.294;2024-02-15T02:20:13;13.20;;;9.15;;
47089;SDS011;32840;52.516;13.294;2024-02-15T02:23:03;13.05;;;9.93;;
47089;SDS011;32840;52.516;13.294;2024-02-15T02:25:57;12.27;;;10.18;;
47089;SDS011;32840;52.516;13.294;2024-02-15T02:28:42;11.38;;;9.40;;
47089;SDS011;32840;52.516;13.294;2024-02-15T02:31:27;15.65;;;11.32;;
47089;SDS011;32840;52.516;13.294;2024-02-15T02:34:13;12.57;;;10.07;;
47089;SDS011;32840;52.516;13.294;2024-02-15T02:37:02;14.90;;;10.57;;
47089;SDS011;32840;52.516;13.294;2024-02-15T02:39:52;13.32;;;10.43;;
47089;SDS011;32840;52.516;13.294;2024-02-15T02:42:45;13.85;;;10.93;;
47089;SDS011;32840;52.516;13.294;2024-02-15T02:46:22;12.90;;;10.30;;
47089;SDS011;32840;52.516;13.294;2024-02-15T02:49:07;14.55;;;10.48;;
47089;SDS011;32840;52.516;13.294;2024-02-15T02:51:53;13.45;;;9.95;;
47089;SDS011;32840;52.516;13.294;2024-02-15T02:54:39;14.27;;;11.40;;
47089;SDS011;32840;52.516;13.294;2024-02-15T02:57:25;13.38;;;10.00;;
47089;SDS011;32840;52.516;13.294;2024-02-15T03:00:12;16.38;;;10.77;;
47089;SDS011;32840;52.516;13.294;2024-02-15T03:03:00;25.70;;;16.95;;
47089;SDS011;32840;52.516;13.294;2024-02-15T03:05:45;14.43;;;10.93;;
47089;SDS011;32840;52.516;13.294;2024-02-15T03:08:33;14.63;;;11.30;;
47089;SDS011;32840;52.516;13.294;2024-02-15T03:11:19;14.35;;;11.90;;
47089;SDS011;32840;52.516;13.294;2024-02-15T03:14:07;14.55;;;10.88;;
47089;SDS011;32840;52.516;13.294;2024-02-15T03:16:57;16.15;;;11.00;;
47089;SDS011;32840;52.516;13.294;2024-02-15T03:19:44;14.52;;;10.48;;
47089;SDS011;32840;52.516;13.294;2024-02-15T03:22:31;16.65;;;12.13;;
47089;SDS011;32840;52.516;13.294;2024-02-15T03:25:23;14.80;;;10.40;;
47089;SDS011;32840;52.516;13.294;2024-02-15T03:31:14;12.27;;;9.77;;
47089;SDS011;32840;52.516;13.294;2024-02-15T03:33:59;13.55;;;10.13;;
47089;SDS011;32840;52.516;13.294;2024-02-15T03:36:44;14.30;;;10.32;;
47089;SDS011;32840;52.516;13.294;2024-02-15T03:39:30;15.05;;;11.05;;
47089;SDS011;32840;52.516;13.294;2024-02-15T03:42:22;12.65;;;10.38;;
47089;SDS011;32840;52.516;13.294;2024-02-15T03:45:09;15.45;;;10.75;;
47089;SDS011;32840;52.516;13.294;2024-02-15T03:47:56;13.13;;;10.52;;
47089;SDS011;32840;52.516;13.294;2024-02-15T03:50:45;21.58;;;11.32;;
47089;SDS011;32840;52.516;13.294;2024-02-15T03:53:31;14.40;;;11.48;;
47089;SDS011;32840;52.516;13.294;2024-02-15T03:56:20;13.48;;;10.90;;
47089;SDS011;32840;52.516;13.294;2024-02-15T03:59:07;15.65;;;11.40;;
47089;SDS011;32840;52.516;13.294;2024-02-15T04:01:55;14.05;;;10.80;;
47089;SDS011;32840;52.516;13.294;2024-02-15T04:05:00;15.63;;;11.35;;
47089;SDS011;32840;52.516;13.294;2024-02-15T04:07:52;15.15;;;11.23;;
47089;SDS011;32840;52.516;13.294;2024-02-15T04:10:38;16.02;;;11.73;;
47089;SDS011;32840;52.516;13.294;2024-02-15T04:13:24;17.02;;;12.70;;
47089;SDS011;32840;52.516;13.294;2024-02-15T04:16:10;15.77;;;12.32;;
47089;SDS011;32840;52.516;13.294;2024-02-15T04:18:57;15.98;;;11.48;;
47089;SDS011;32840;52.516;13.294;2024-02-15T04:21:43;15.45;;;11.98;;
47089;SDS011;32840;52.516;13.294;2024-02-15T04:24:30;15.32;;;10.90;;
47089;SDS011;32840;52.516;13.294;2024-02-15T04:27:16;17.17;;;11.57;;
47089;SDS011;32840;52.516;13.294;2024-02-15T04:30:04;13.88;;;11.18;;
47089;SDS011;32840;52.516;13.294;2024-02-15T04:32:54;15.13;;;12.00;;
47089;SDS011;32840;52.516;13.294;2024-02-15T04:35:39;14.77;;;11.27;;
47089;SDS011;32840;52.516;13.294;2024-02-15T04:38:25;15.25;;;11.25;;
47089;SDS011;32840;52.516;13.294;2024-02-15T04:41:14;15.82;;;11.35;;
47089;SDS011;32840;52.516;13.294;2024-02-15T04:46:54;15.27;;;11.25;;
47089;SDS011;32840;52.516;13.294;2024-02-15T04:49:39;15.25;;;11.15;;
47089;SDS011;32840;52.516;13.294;2024-02-15T04:52:26;14.63;;;10.73;;
47089;SDS011;32840;52.516;13.294;2024-02-15T04:55:12;15.80;;;11.05;;
47089;SDS011;32840;52.516;13.294;2024-02-15T04:58:05;15.88;;;11.68;;
47089;SDS011;32840;52.516;13.294;2024-02-15T05:00:54;17.17;;;10.85;;
47089;SDS011;32840;52.516;13.294;2024-02-15T05:03:46;14.02;;;10.60;;
47089;SDS011;32840;52.516;13.294;2024-02-15T05:06:34;14.68;;;10.25;;
47089;SDS011;32840;52.516;13.294;2024-02-15T05:09:23;13.68;;;10.57;;
47089;SDS011;32840;52.516;13.294;2024-02-15T05:12:08;15.13;;;10.55;;
47089;SDS011;32840;52.516;13.294;2024-02-15T05:14:53;14.25;;;10.40;;
47089;SDS011;32840;52.516;13.294;2024-02-15T05:17:39;15.18;;;10.30;;
47089;SDS011;32840;52.516;13.294;2024-02-15T05:20:28;12.90;;;9.38;;
47089;SDS011;32840;52.516;13.294;2024-02-15T05:23:14;15.98;;;11.02;;
47089;SDS011;32840;52.516;13.294;2024-02-15T05:26:02;15.20;;;10.65;;
47089;SDS011;32840;52.516;13.294;2024-02-15T05:28:47;18.00;;;11.05;;
47089;SDS011;32840;52.516;13.294;2024-02-15T05:31:41;15.25;;;9.82;;
47089;SDS011;32840;52.516;13.294;2024-02-15T05:34:27;15.98;;;11.23;;
47089;SDS011;32840;52.516;13.294;2024-02-15T05:37:15;16.50;;;12.02;;
47089;SDS011;32840;52.516;13.294;2024-02-15T05:40:04;17.92;;;11.00;;
47089;SDS011;32840;52.516;13.294;2024-02-15T05:42:55;16.27;;;10.88;;
47089;SDS011;32840;52.516;13.294;2024-02-15T05:45:42;15.77;;;10.18;;
47089;SDS011;32840;52.516;13.294;2024-02-15T05:48:29;15.02;;;10.68;;
47089;SDS011;32840;52.516;13.294;2024-02-15T05:51:15;15.40;;;10.95;;
47089;SDS011;32840;52.516;13.294;2024-02-15T05:54:00;15.43;;;10.75;;
47089;SDS011;32840;52.516;13.294;2024-02-15T05:56:50;14.18;;;10.07;;
47089;SDS011;32840;52.516;13.294;2024-02-15T05:59:38;17.05;;;11.60;;
47089;SDS011;32840;52.516;13.294;2024-02-15T06:02:30;15.18;;;11.15;;
47089;SDS011;32840;52.516;13.294;2024-02-15T06:05:18;14.88;;;10.88;;
47089;SDS011;32840;52.516;13.294;2024-02-15T06:08:09;16.60;;;11.18;;
47089;SDS011;32840;52.516;13.294;2024-02-15T06:10:59;16.23;;;10.00;;
47089;SDS011;32840;52.516;13.294;2024-02-15T06:13:47;17.27;;;10.82;;
47089;SDS011;32840;52.516;13.294;2024-02-15T06:16:33;15.38;;;10.98;;
47089;SDS011;32840;52.516;13.294;2024-02-15T06:19:19;14.48;;;10.57;;
47089;SDS011;32840;52.516;13.294;2024-02-15T06:22:07;14.85;;;9.88;;
47089;SDS011;32840;52.516;13.294;2024-02-15T06:24:56;13.18;;;9.75;;
47089;SDS011;32840;52.516;13.294;2024-02-15T06:27:43;15.15;;;10.18;;
47089;SDS011;32840;52.516;13.294;2024-02-15T06:30:32;17.55;;;11.40;;
47089;SDS011;32840;52.516;13.294;2024-02-15T06:34:02;15.95;;;10.52;;
47089;SDS011;32840;52.516;13.294;2024-02-15T06:37:06;16.83;;;11.57;;
47089;SDS011;32840;52.516;13.294;2024-02-15T06:40:09;16.63;;;11.65;;
47089;SDS011;32840;52.516;13.294;2024-02-15T06:42:57;16.80;;;11.00;;
47089;SDS011;32840;52.516;13.294;2024-02-15T06:45:44;17.67;;;11.70;;
47089;SDS011;32840;52.516;13.294;2024-02-15T06:48:31;16.67;;;11.93;;
47089;SDS011;32840;52.516;13.294;2024-02-15T06:51:16;16.27;;;11.05;;
47089;SDS011;32840;52.516;13.294;2024-02-15T06:54:03;17.73;;;12.07;;
47089;SDS011;32840;52.516;13.294;2024-02-15T06:56:48;19.85;;;11.85;;
47089;SDS011;32840;52.516;13.294;2024-02-15T06:59:34;19.35;;;11.38;;
47089;SDS011;32840;52.516;13.294;2024-02-15T07:02:19;23.65;;;11.75;;
47089;SDS011;32840;52.516;13.294;2024-02-15T07:05:04;14.52;;;10.38;;
47089;SDS011;32840;52.516;13.294;2024-02-15T07:07:50;15.18;;;10.05;;
47089;SDS011;32840;52.516;13.294;2024-02-15T07:10:34;16.85;;;11.38;;
47089;SDS011;32840;52.516;13.294;2024-02-15T07:13:22;15.30;;;11.10;;
47089;SDS011;32840;52.516;13.294;2024-02-15T07:16:08;16.40;;;10.45;;
47089;SDS011;32840;52.516;13.294;2024-02-15T07:18:53;14.57;;;10.00;;
47089;SDS011;32840;52.516;13.294;2024-02-15T07:21:39;14.13;;;9.93;;
47089;SDS011;32840;52.516;13.294;2024-02-15T07:24:24;15.85;;;10.13;;
47089;SDS011;32840;52.516;13.294;2024-02-15T07:27:11;13.68;;;9.80;;
47089;SDS011;32840;52.516;13.294;2024-02-15T07:30:01;17.98;;;9.27;;
47089;SDS011;32840;52.516;13.294;2024-02-15T07:32:49;14.60;;;9.38;;
47089;SDS011;32840;52.516;13.294;2024-02-15T07:35:34;14.93;;;10.40;;
47089;SDS011;32840;52.516;13.294;2024-02-15T07:38:19;12.23;;;8.95;;
47089;SDS011;32840;52.516;13.294;2024-02-15T07:41:09;13.38;;;8.50;;
47089;SDS011;32840;52.516;13.294;2024-02-15T07:43:55;14.02;;;9.55;;
47089;SDS011;32840;52.516;13.294;2024-02-15T07:46:41;14.23;;;9.23;;
47089;SDS011;32840;52.516;13.294;2024-02-15T07:49:26;12.98;;;9.48;;
47089;SDS011;32840;52.516;13.294;2024-02-15T07:52:11;15.32;;;9.48;;
47089;SDS011;32840;52.516;13.294;2024-02-15T07:54:56;13.27;;;9.68;;
47089;SDS011;32840;52.516;13.294;2024-02-15T07:57:40;11.57;;;8.45;;
47089;SDS011;32840;52.516;13.294;2024-02-15T08:00:25;15.50;;;10.02;;
47089;SDS011;32840;52.516;13.294;2024-02-15T08:03:11;13.38;;;9.00;;
47089;SDS011;32840;52.516;13.294;2024-02-15T08:05:56;13.23;;;9.35;;
47089;SDS011;32840;52.516;13.294;2024-02-15T08:08:42;15.43;;;9.18;;
47089;SDS011;32840;52.516;13.294;2024-02-15T08:11:31;11.55;;;9.40;;
47089;SDS011;32840;52.516;13.294;2024-02-15T08:14:15;13.15;;;9.95;;
47089;SDS011;32840;52.516;13.294;2024-02-15T08:17:01;13.13;;;9.00;;
47089;SDS011;32840;52.516;13.294;2024-02-15T08:19:47;12.70;;;8.68;;
47089;SDS011;32840;52.516;13.294;2024-02-15T08:22:31;11.98;;;9.13;;
47089;SDS011;32840;52.516;13.294;2024-02-15T08:25:17;13.35;;;9.63;;
47089;SDS011;32840;52.516;13.294;2024-02-15T08:28:03;12.15;;;8.95;;
47089;SDS011;32840;52.516;13.294;2024-02-15T08:30:52;9.90;;;8.02;;
47089;SDS011;32840;52.516;13.294;2024-02-15T08:33:38;16.67;;;8.57;;
47089;SDS011;32840;52.516;13.294;2024-02-15T08:39:14;20.50;;;13.57;;
47089;SDS011;32840;52.516;13.294;2024-02-15T08:42:00;15.05;;;8.20;;
47089;SDS011;32840;52.516;13.294;2024-02-15T08:44:48;14.85;;;9.32;;
47089;SDS011;32840;52.516;13.294;2024-02-15T08:47:33;16.27;;;8.70;;
47089;SDS011;32840;52.516;13.294;2024-02-15T08:50:18;18.25;;;9.45;;
47089;SDS011;32840;52.516;13.294;2024-02-15T08:53:09;17.65;;;8.63;;
47089;SDS011;32840;52.516;13.294;2024-02-15T08:55:54;17.65;;;9.13;;
47089;SDS011;32840;52.516;13.294;2024-02-15T08:58:38;16.33;;;7.90;;
47089;SDS011;32840;52.516;13.294;2024-02-15T09:01:24;14.63;;;9.70;;
47089;SDS011;32840;52.516;13.294;2024-02-15T09:04:09;14.70;;;8.15;;
47089;SDS011;32840;52.516;13.294;2024-02-15T09:06:54;9.45;;;6.57;;
47089;SDS011;32840;52.516;13.294;2024-02-15T09:09:39;10.48;;;7.85;;
47089;SDS011;32840;52.516;13.294;2024-02-15T09:12:25;10.93;;;7.65;;
47089;SDS011;32840;52.516;13.294;2024-02-15T09:15:10;10.75;;;7.45;;
47089;SDS011;32840;52.516;13.294;2024-02-15T09:18:00;13.32;;;8.65;;
47089;SDS011;32840;52.516;13.294;2024-02-15T09:20:50;14.57;;;9.48;;
47089;SDS011;32840;52.516;13.294;2024-02-15T09:23:41;10.02;;;7.10;;
47089;SDS011;32840;52.516;13.294;2024-02-15T09:26:27;12.00;;;7.13;;
47089;SDS011;32840;52.516;13.294;2024-02-15T09:29:12;10.27;;;7.72;;
47089;SDS011;32840;52.516;13.294;2024-02-15T09:31:57;8.93;;;6.70;;
47089;SDS011;32840;52.516;13.294;2024-02-15T09:34:43;9.70;;;6.65;;
47089;SDS011;32840;52.516;13.294;2024-02-15T09:37:28;12.38;;;9.98;;
47089;SDS011;32840;52.516;13.294;2024-02-15T09:40:14;10.45;;;7.45;;
47089;SDS011;32840;52.516;13.294;2024-02-15T09:43:00;9.90;;;6.82;;
47089;SDS011;32840;52.516;13.294;2024-02-15T09:45:46;10.25;;;6.85;;
47089;SDS011;32840;52.516;13.294;2024-02-15T09:48:32;12.32;;;7.13;;
47089;SDS011;32840;52.516;13.294;2024-02-15T09:51:20;11.23;;;6.60;;
47089;SDS011;32840;52.516;13.294;2024-02-15T09:54:05;9.80;;;7.07;;
47089;SDS011;32840;52.516;13.294;2024-02-15T09:56:53;12.88;;;6.55;;
47089;SDS011;32840;52.516;13.294;2024-02-15T09:59:39;16.05;;;7.63;;
47089;SDS011;32840;52.516;13.294;2024-02-15T10:02:26;18.88;;;7.28;;
47089;SDS011;32840;52.516;13.294;2024-02-15T10:05:13;15.73;;;6.95;;
47089;SDS011;32840;52.516;13.294;2024-02-15T10:08:03;9.63;;;6.57;;
47089;SDS011;32840;52.516;13.294;2024-02-15T10:11:07;10.85;;;6.35;;
47089;SDS011;32840;52.516;13.294;2024-02-15T10:16:54;7.85;;;5.70;;
47089;SDS011;32840;52.516;13.294;2024-02-15T10:20:23;8.02;;;5.97;;
47089;SDS011;32840;52.516;13.294;2024-02-15T10:23:13;10.55;;;6.07;;
47089;SDS011;32840;52.516;13.294;2024-02-15T10:26:23;27.67;;;15.00;;
47089;SDS011;32840;52.516;13.294;2024-02-15T10:29:09;27.65;;;14.00;;
47089;SDS011;32840;52.516;13.294;2024-02-15T10:32:02;53.00;;;27.63;;
47089;SDS011;32840;52.516;13.294;2024-02-15T10:34:48;16.40;;;9.88;;
47089;SDS011;32840;52.516;13.294;2024-02-15T10:37:34;23.15;;;13.45;;
47089;SDS011;32840;52.516;13.294;2024-02-15T10:40:20;25.10;;;14.05;;
47089;SDS011;32840;52.516;13.294;2024-02-15T10:43:06;7.88;;;5.50;;
47089;SDS011;32840;52.516;13.294;2024-02-15T10:45:56;8.68;;;5.90;;
47089;SDS011;32840;52.516;13.294;2024-02-15T10:48:55;9.75;;;5.95;;
47089;SDS011;32840;52.516;13.294;2024-02-15T10:51:44;8.20;;;4.35;;
47089;SDS011;32840;52.516;13.294;2024-02-15T10:58:00;7.97;;;4.60;;
47089;SDS011;32840;52.516;13.294;2024-02-15T11:00:49;9.55;;;4.85;;
47089;SDS011;32840;52.516;13.294;2024-02-15T11:03:41;16.35;;;4.35;;
47089;SDS011;32840;52.516;13.294;2024-02-15T11:06:38;7.03;;;4.35;;
47089;SDS011;32840;52.516;13.294;2024-02-15T11:09:33;7.32;;;4.50;;
47089;SDS011;32840;52.516;13.294;2024-02-15T11:12:22;5.80;;;4.10;;
47089;SDS011;32840;52.516;13.294;2024-02-15T11:15:11;4.80;;;3.75;;
47089;SDS011;32840;52.516;13.294;2024-02-15T11:17:56;6.93;;;4.20;;
47089;SDS011;32840;52.516;13.294;2024-02-15T11:23:26;5.43;;;3.75;;
47089;SDS011;32840;52.516;13.294;2024-02-15T11:32:43;4.28;;;3.33;;
47089;SDS011;32840;52.516;13.294;2024-02-15T11:35:39;6.07;;;3.35;;
47089;SDS011;32840;52.516;13.294;2024-02-15T11:38:51;7.10;;;3.83;;
47089;SDS011;32840;52.516;13.294;2024-02-15T11:41:36;7.65;;;4.28;;
47089;SDS011;32840;52.516;13.294;2024-02-15T11:44:24;7.32;;;4.43;;
47089;SDS011;32840;52.516;13.294;2024-02-15T11:47:09;6.68;;;3.80;;
47089;SDS011;32840;52.516;13.294;2024-02-15T11:49:57;8.68;;;4.05;;
47089;SDS011;32840;52.516;13.294;2024-02-15T11:52:44;5.53;;;4.15;;
47089;SDS011;32840;52.516;13.294;2024-02-15T11:55:39;7.07;;;3.95;;
47089;SDS011;32840;52.516;13.294;2024-02-15T11:58:41;4.85;;;3.17;;
47089;SDS011;32840;52.516;13.294;2024-02-15T12:02:04;5.60;;;3.43;;
47089;SDS011;32840;52.516;13.294;2024-02-15T12:05:54;6.85;;;4.03;;
47089;SDS011;32840;52.516;13.294;2024-02-15T12:09:58;6.95;;;3.83;;
47089;SDS011;32840;52.516;13.294;2024-02-15T13:22:32;5.03;;;1.80;;
47089;SDS011;32840;52.516;13.294;2024-02-15T13:25:37;5.83;;;2.50;;
47089;SDS011;32840;52.516;13.294;2024-02-15T13:28:35;3.92;;;2.05;;
47089;SDS011;32840;52.516;13.294;2024-02-15T13:31:46;3.55;;;1.92;;
47089;SDS011;32840;52.516;13.294;2024-02-15T13:34:57;4.10;;;2.20;;
47089;SDS011;32840;52.516;13.294;2024-02-15T13:38:08;4.20;;;2.38;;
47089;SDS011;32840;52.516;13.294;2024-02-15T13:41:13;6.22;;;2.38;;
47089;SDS011;32840;52.516;13.294;2024-02-15T13:44:03;4.07;;;2.63;;
47089;SDS011;32840;52.516;13.294;2024-02-15T13:46:58;4.78;;;2.58;;
47089;SDS011;32840;52.516;13.294;2024-02-15T13:50:02;5.78;;;2.90;;
47089;SDS011;32840;52.516;13.294;2024-02-15T13:53:00;5.00;;;2.58;;
47089;SDS011;32840;52.516;13.294;2024-02-15T13:55:52;4.85;;;2.28;;
47089;SDS011;32840;52.516;13.294;2024-02-15T13:58:53;5.75;;;2.75;;
47089;SDS011;32840;52.516;13.294;2024-02-15T14:02:14;3.63;;;2.08;;
47089;SDS011;32840;52.516;13.294;2024-02-15T14:05:07;6.30;;;3.30;;
47089;SDS011;32840;52.516;13.294;2024-02-15T14:07:59;7.22;;;3.00;;
47089;SDS011;32840;52.516;13.294;2024-02-15T14:11:10;5.32;;;2.67;;
47089;SDS011;32840;52.516;13.294;2024-02-15T14:17:11;6.22;;;3.00;;
47089;SDS011;32840;52.516;13.294;2024-02-15T14:20:02;6.30;;;3.47;;
47089;SDS011;32840;52.516;13.294;2024-02-15T14:22:57;6.28;;;3.58;;
47089;SDS011;32840;52.516;13.294;2024-02-15T14:25:53;6.13;;;3.92;;
47089;SDS011;32840;52.516;13.294;2024-02-15T14:28:47;5.32;;;3.35;;
47089;SDS011;32840;52.516;13.294;2024-02-15T14:31:37;7.75;;;3.28;;
47089;SDS011;32840;52.516;13.294;2024-02-15T14:34:55;7.50;;;4.03;;
47089;SDS011;32840;52.516;13.294;2024-02-15T14:38:14;5.20;;;3.58;;
47089;SDS011;32840;52.516;13.294;2024-02-15T14:41:41;5.28;;;3.25;;
47089;SDS011;32840;52.516;13.294;2024-02-15T14:44:35;9.90;;;3.97;;
47089;SDS011;32840;52.516;13.294;2024-02-15T14:47:40;8.57;;;5.90;;
47089;SDS011;32840;52.516;13.294;2024-02-15T14:50:35;6.78;;;4.53;;
47089;SDS011;32840;52.516;13.294;2024-02-15T14:53:32;9.00;;;4.25;;
47089;SDS011;32840;52.516;13.294;2024-02-15T14:56:36;6.47;;;3.63;;
47089;SDS011;32840;52.516;13.294;2024-02-15T14:59:51;6.78;;;4.13;;
47089;SDS011;32840;52.516;13.294;2024-02-15T15:02:45;6.72;;;3.78;;
47089;SDS011;32840;52.516;13.294;2024-02-15T15:05:36;8.88;;;6.15;;
47089;SDS011;32840;52.516;13.294;2024-02-15T15:08:44;5.50;;;3.53;;
47089;SDS011;32840;52.516;13.294;2024-02-15T15:12:00;6.93;;;3.65;;
47089;SDS011;32840;52.516;13.294;2024-02-15T15:15:04;11.68;;;6.22;;
47089;SDS011;32840;52.516;13.294;2024-02-15T15:17:57;7.30;;;3.72;;
47089;SDS011;32840;52.516;13.294;2024-02-15T15:21:01;6.88;;;3.50;;
47089;SDS011;32840;52.516;13.294;2024-02-15T15:23:47;12.55;;;7.22;;
47089;SDS011;32840;52.516;13.294;2024-02-15T15:26:39;7.32;;;3.97;;
47089;SDS011;32840;52.516;13.294;2024-02-15T15:30:00;9.93;;;3.65;;
47089;SDS011;32840;52.516;13.294;2024-02-15T15:36:28;6.43;;;3.55;;
47089;SDS011;32840;52.516;13.294;2024-02-15T15:46:39;7.60;;;4.40;;
47089;SDS011;32840;52.516;13.294;2024-02-15T15:53:24;9.48;;;5.70;;
47089;SDS011;32840;52.516;13.294;2024-02-15T15:57:17;8.07;;;4.43;;
47089;SDS011;32840;52.516;13.294;2024-02-15T16:05:02;7.38;;;4.30;;
47089;SDS011;32840;52.516;13.294;2024-02-15T16:08:08;13.80;;;4.85;;
47089;SDS011;32840;52.516;13.294;2024-02-15T16:11:40;11.38;;;6.30;;
47089;SDS011;32840;52.516;13.294;2024-02-15T16:14:36;10.15;;;5.47;;
47089;SDS011;32840;52.516;13.294;2024-02-15T16:17:34;10.45;;;5.60;;
47089;SDS011;32840;52.516;13.294;2024-02-15T16:20:35;8.23;;;5.28;;
47089;SDS011;32840;52.516;13.294;2024-02-15T16:23:52;8.45;;;5.40;;
47089;SDS011;32840;52.516;13.294;2024-02-15T16:27:03;7.18;;;4.65;;
47089;SDS011;32840;52.516;13.294;2024-02-15T16:30:16;8.73;;;4.68;;
47089;SDS011;32840;52.516;13.294;2024-02-15T16:36:37;11.18;;;4.55;;
47089;SDS011;32840;52.516;13.294;2024-02-15T16:39:25;9.88;;;4.22;;
47089;SDS011;32840;52.516;13.294;2024-02-15T16:42:24;10.27;;;5.00;;
47089;SDS011;32840;52.516;13.294;2024-02-15T17:03:51;8.25;;;4.40;;
47089;SDS011;32840;52.516;13.294;2024-02-15T17:11:46;7.47;;;4.78;;
47089;SDS011;32840;52.516;13.294;2024-02-15T17:43:30;9.60;;;5.07;;
47089;SDS011;32840;52.516;13.294;2024-02-15T18:14:55;6.55;;;4.57;;
47089;SDS011;32840;52.516;13.294;2024-02-15T18:17:42;7.13;;;4.32;;
47089;SDS011;32840;52.516;13.294;2024-02-15T18:20:29;8.30;;;4.22;;
47089;SDS011;32840;52.516;13.294;2024-02-15T18:23:19;8.73;;;4.78;;
47089;SDS011;32840;52.516;13.294;2024-02-15T18:26:07;9.52;;;5.05;;
47089;SDS011;32840;52.516;13.294;2024-02-15T18:28:54;6.53;;;4.28;;
47089;SDS011;32840;52.516;13.294;2024-02-15T18:31:41;7.85;;;5.65;;
47089;SDS011;32840;52.516;13.294;2024-02-15T18:34:26;9.50;;;6.18;;
47089;SDS011;32840;52.516;13.294;2024-02-15T18:37:20;11.25;;;5.55;;
47089;SDS011;32840;52.516;13.294;2024-02-15T18:40:23;10.10;;;5.70;;
47089;SDS011;32840;52.516;13.294;2024-02-15T19:40:14;9.23;;;4.60;;
47089;SDS011;32840;52.516;13.294;2024-02-15T19:46:49;7.05;;;4.30;;
47089;SDS011;32840;52.516;13.294;2024-02-15T20:11:50;6.30;;;4.30;;
47089;SDS011;32840;52.516;13.294;2024-02-15T20:15:23;10.00;;;4.43;;
47089;SDS011;32840;52.516;13.294;2024-02-15T20:18:44;5.65;;;3.70;;
47089;SDS011;32840;52.516;13.294;2024-02-15T20:29:50;5.38;;;3.53;;
47089;SDS011;32840;52.516;13.294;2024-02-15T20:32:43;7.68;;;4.25;;
47089;SDS011;32840;52.516;13.294;2024-02-15T20:35:31;7.35;;;4.97;;
47089;SDS011;32840;52.516;13.294;2024-02-15T20:38:24;6.75;;;4.45;;
47089;SDS011;32840;52.516;13.294;2024-02-15T20:41:18;7.15;;;5.25;;
47089;SDS011;32840;52.516;13.294;2024-02-15T20:44:06;5.97;;;4.43;;
47089;SDS011;32840;52.516;13.294;2024-02-15T20:46:54;7.90;;;5.05;;
47089;SDS011;32840;52.516;13.294;2024-02-15T20:49:39;6.90;;;4.40;;
47089;SDS011;32840;52.516;13.294;2024-02-15T20:56:34;6.32;;;4.38;;
47089;SDS011;32840;52.516;13.294;2024-02-15T20:59:24;7.22;;;5.55;;
47089;SDS011;32840;52.516;13.294;2024-02-15T21:02:11;7.65;;;4.72;;
47089;SDS011;32840;52.516;13.294;2024-02-15T21:12:15;8.05;;;6.18;;
47089;SDS011;32840;52.516;13.294;2024-02-15T21:15:01;10.95;;;8.15;;
47089;SDS011;32840;52.516;13.294;2024-02-15T21:17:47;5.10;;;4.00;;
47089;SDS011;32840;52.516;13.294;2024-02-15T21:20:45;8.43;;;5.22;;
47089;SDS011;32840;52.516;13.294;2024-02-15T21:23:30;5.38;;;3.88;;
47089;SDS011;32840;52.516;13.294;2024-02-15T21:26:17;5.43;;;4.07;;
47089;SDS011;32840;52.516;13.294;2024-02-15T21:32:24;5.35;;;3.75;;
47089;SDS011;32840;52.516;13.294;2024-02-15T21:35:15;7.60;;;5.00;;
47089;SDS011;32840;52.516;13.294;2024-02-15T21:38:03;6.35;;;4.35;;
47089;SDS011;32840;52.516;13.294;2024-02-15T21:40:48;5.55;;;3.97;;
47089;SDS011;32840;52.516;13.294;2024-02-15T21:43:35;10.85;;;5.40;;
47089;SDS011;32840;52.516;13.294;2024-02-15T21:46:35;5.80;;;4.40;;
47089;SDS011;32840;52.516;13.294;2024-02-15T21:49:30;7.88;;;4.85;;
47089;SDS011;32840;52.516;13.294;2024-02-15T21:52:25;10.02;;;4.93;;
47089;SDS011;32840;52.516;13.294;2024-02-15T21:55:29;5.20;;;4.15;;
47089;SDS011;32840;52.516;13.294;2024-02-15T21:58:17;7.93;;;4.75;;